sensor_id;sensor_type;location;lat;lon;timestamp;P1;durP1;ratioP1;P2;durP2;ratioP2
67272;SDS011;54190;49.770;9.250;2023-11-21T00:00:44;2.50;;;1.40;;
67272;SDS011;54190;49.770;9.250;2023-11-21T00:03:11;3.30;;;1.50;;
67272;SDS011;54190;49.770;9.250;2023-11-21T00:05:40;2.67;;;1.37;;
67272;SDS011;54190;49.770;9.250;2023-11-21T00:08:08;2.47;;;1.50;;
67272;SDS011;54190;49.770;9.250;2023-11-21T00:10:34;2.67;;;1.10;;
67272;SDS011;54190;49.770;9.250;2023-11-21T00:13:00;2.37;;;1.30;;
67272;SDS011;54190;49.770;9.250;2023-11-21T00:15:27;2.37;;;1.10;;
67272;SDS011;54190;49.770;9.250;2023-11-21T00:17:53;4.90;;;1.27;;
67272;SDS011;54190;49.770;9.250;2023-11-21T00:20:19;3.23;;;1.30;;
67272;SDS011;54190;49.770;9.250;2023-11-21T00:22:45;2.10;;;1.20;;
67272;SDS011;54190;49.770;9.250;2023-11-21T00:25:11;2.97;;;1.27;;
67272;SDS011;54190;49.770;9.250;2023-11-21T00:27:39;2.83;;;1.50;;
67272;SDS011;54190;49.770;9.250;2023-11-21T00:30:05;2.83;;;1.50;;
67272;SDS011;54190;49.770;9.250;2023-11-21T00:32:32;2.03;;;1.13;;
67272;SDS011;54190;49.770;9.250;2023-11-21T00:34:58;2.13;;;1.13;;
67272;SDS011;54190;49.770;9.250;2023-11-21T00:37:24;4.10;;;1.30;;
67272;SDS011;54190;49.770;9.250;2023-11-21T00:39:50;1.90;;;1.10;;
67272;SDS011;54190;49.770;9.250;2023-11-21T00:42:15;3.83;;;1.90;;
67272;SDS011;54190;49.770;9.250;2023-11-21T00:44:41;5.47;;;2.53;;
67272;SDS011;54190;49.770;9.250;2023-11-21T00:47:07;6.20;;;2.60;;
67272;SDS011;54190;49.770;9.250;2023-11-21T00:49:33;2.40;;;1.37;;
67272;SDS011;54190;49.770;9.250;2023-11-21T00:51:59;5.43;;;2.50;;
67272;SDS011;54190;49.770;9.250;2023-11-21T00:54:26;4.60;;;2.00;;
67272;SDS011;54190;49.770;9.250;2023-11-21T00:56:52;15.07;;;7.33;;
67272;SDS011;54190;49.770;9.250;2023-11-21T00:59:18;15.53;;;7.27;;
67272;SDS011;54190;49.770;9.250;2023-11-21T01:01:43;5.20;;;2.50;;
67272;SDS011;54190;49.770;9.250;2023-11-21T01:04:09;3.20;;;1.80;;
67272;SDS011;54190;49.770;9.250;2023-11-21T01:06:35;1.70;;;1.10;;
67272;SDS011;54190;49.770;9.250;2023-11-21T01:09:01;1.70;;;1.00;;
67272;SDS011;54190;49.770;9.250;2023-11-21T01:11:29;2.00;;;1.10;;
67272;SDS011;54190;49.770;9.250;2023-11-21T01:13:54;5.17;;;1.03;;
67272;SDS011;54190;49.770;9.250;2023-11-21T01:16:20;2.00;;;1.00;;
67272;SDS011;54190;49.770;9.250;2023-11-21T01:18:46;1.83;;;1.00;;
67272;SDS011;54190;49.770;9.250;2023-11-21T01:21:11;2.50;;;1.10;;
67272;SDS011;54190;49.770;9.250;2023-11-21T01:23:37;3.40;;;1.23;;
67272;SDS011;54190;49.770;9.250;2023-11-21T01:26:03;1.80;;;1.10;;
67272;SDS011;54190;49.770;9.250;2023-11-21T01:28:28;2.10;;;1.10;;
67272;SDS011;54190;49.770;9.250;2023-11-21T01:30:54;2.93;;;1.30;;
67272;SDS011;54190;49.770;9.250;2023-11-21T01:33:21;3.00;;;1.13;;
67272;SDS011;54190;49.770;9.250;2023-11-21T01:35:48;3.20;;;1.87;;
67272;SDS011;54190;49.770;9.250;2023-11-21T01:38:14;4.40;;;1.60;;
67272;SDS011;54190;49.770;9.250;2023-11-21T01:40:40;4.87;;;2.47;;
67272;SDS011;54190;49.770;9.250;2023-11-21T01:43:05;2.40;;;1.20;;
67272;SDS011;54190;49.770;9.250;2023-11-21T01:45:33;2.87;;;1.43;;
67272;SDS011;54190;49.770;9.250;2023-11-21T01:47:59;2.20;;;1.20;;
67272;SDS011;54190;49.770;9.250;2023-11-21T01:50:26;2.33;;;1.33;;
67272;SDS011;54190;49.770;9.250;2023-11-21T01:52:52;2.90;;;1.50;;
67272;SDS011;54190;49.770;9.250;2023-11-21T01:55:19;2.50;;;1.30;;
67272;SDS011;54190;49.770;9.250;2023-11-21T01:57:45;2.00;;;1.13;;
67272;SDS011;54190;49.770;9.250;2023-11-21T02:00:11;1.60;;;0.90;;
67272;SDS011;54190;49.770;9.250;2023-11-21T02:02:47;1.87;;;0.90;;
67272;SDS011;54190;49.770;9.250;2023-11-21T02:05:17;1.70;;;0.83;;
67272;SDS011;54190;49.770;9.250;2023-11-21T02:07:44;1.47;;;0.80;;
67272;SDS011;54190;49.770;9.250;2023-11-21T02:10:11;1.70;;;0.80;;
67272;SDS011;54190;49.770;9.250;2023-11-21T02:12:43;1.60;;;0.80;;
67272;SDS011;54190;49.770;9.250;2023-11-21T02:15:12;1.80;;;1.00;;
67272;SDS011;54190;49.770;9.250;2023-11-21T02:17:49;1.60;;;0.87;;
67272;SDS011;54190;49.770;9.250;2023-11-21T02:20:21;1.80;;;0.80;;
67272;SDS011;54190;49.770;9.250;2023-11-21T02:22:52;2.00;;;0.90;;
67272;SDS011;54190;49.770;9.250;2023-11-21T02:25:26;1.60;;;0.80;;
67272;SDS011;54190;49.770;9.250;2023-11-21T02:27:53;2.97;;;1.40;;
67272;SDS011;54190;49.770;9.250;2023-11-21T02:30:20;2.90;;;0.90;;
67272;SDS011;54190;49.770;9.250;2023-11-21T02:32:47;1.63;;;0.80;;
67272;SDS011;54190;49.770;9.250;2023-11-21T02:35:13;1.50;;;0.73;;
67272;SDS011;54190;49.770;9.250;2023-11-21T02:37:41;2.17;;;0.80;;
67272;SDS011;54190;49.770;9.250;2023-11-21T02:40:08;1.60;;;0.80;;
67272;SDS011;54190;49.770;9.250;2023-11-21T02:42:35;1.50;;;0.80;;
67272;SDS011;54190;49.770;9.250;2023-11-21T02:45:01;1.60;;;0.87;;
67272;SDS011;54190;49.770;9.250;2023-11-21T02:47:26;2.03;;;1.00;;
67272;SDS011;54190;49.770;9.250;2023-11-21T02:49:52;1.40;;;0.70;;
67272;SDS011;54190;49.770;9.250;2023-11-21T02:52:18;1.83;;;1.00;;
67272;SDS011;54190;49.770;9.250;2023-11-21T02:54:44;1.70;;;0.90;;
67272;SDS011;54190;49.770;9.250;2023-11-21T02:57:10;1.50;;;0.83;;
67272;SDS011;54190;49.770;9.250;2023-11-21T02:59:35;1.50;;;0.80;;
67272;SDS011;54190;49.770;9.250;2023-11-21T03:02:01;5.63;;;1.10;;
67272;SDS011;54190;49.770;9.250;2023-11-21T03:04:26;1.60;;;0.90;;
67272;SDS011;54190;49.770;9.250;2023-11-21T03:06:52;1.80;;;1.00;;
67272;SDS011;54190;49.770;9.250;2023-11-21T03:09:18;1.90;;;1.00;;
67272;SDS011;54190;49.770;9.250;2023-11-21T03:11:43;1.90;;;1.00;;
67272;SDS011;54190;49.770;9.250;2023-11-21T03:14:09;1.57;;;0.83;;
67272;SDS011;54190;49.770;9.250;2023-11-21T03:16:35;2.00;;;1.03;;
67272;SDS011;54190;49.770;9.250;2023-11-21T03:19:03;1.97;;;0.90;;
67272;SDS011;54190;49.770;9.250;2023-11-21T03:21:30;1.80;;;1.00;;
67272;SDS011;54190;49.770;9.250;2023-11-21T03:23:55;2.10;;;1.00;;
67272;SDS011;54190;49.770;9.250;2023-11-21T03:26:21;2.70;;;1.10;;
67272;SDS011;54190;49.770;9.250;2023-11-21T03:28:47;1.53;;;0.80;;
67272;SDS011;54190;49.770;9.250;2023-11-21T03:31:12;2.00;;;1.00;;
67272;SDS011;54190;49.770;9.250;2023-11-21T03:33:38;1.73;;;0.97;;
67272;SDS011;54190;49.770;9.250;2023-11-21T03:36:04;1.73;;;1.00;;
67272;SDS011;54190;49.770;9.250;2023-11-21T03:38:29;1.60;;;0.97;;
67272;SDS011;54190;49.770;9.250;2023-11-21T03:40:55;1.87;;;1.10;;
67272;SDS011;54190;49.770;9.250;2023-11-21T03:43:21;1.60;;;1.00;;
67272;SDS011;54190;49.770;9.250;2023-11-21T03:45:46;3.03;;;1.27;;
67272;SDS011;54190;49.770;9.250;2023-11-21T03:48:13;1.73;;;0.97;;
67272;SDS011;54190;49.770;9.250;2023-11-21T03:50:39;1.77;;;0.97;;
67272;SDS011;54190;49.770;9.250;2023-11-21T03:53:05;1.70;;;0.97;;
67272;SDS011;54190;49.770;9.250;2023-11-21T03:55:31;1.80;;;1.07;;
67272;SDS011;54190;49.770;9.250;2023-11-21T03:57:57;2.17;;;1.10;;
67272;SDS011;54190;49.770;9.250;2023-11-21T04:00:23;2.17;;;1.00;;
67272;SDS011;54190;49.770;9.250;2023-11-21T04:02:52;1.80;;;1.00;;
67272;SDS011;54190;49.770;9.250;2023-11-21T04:05:18;1.80;;;1.00;;
67272;SDS011;54190;49.770;9.250;2023-11-21T04:07:45;2.40;;;1.17;;
67272;SDS011;54190;49.770;9.250;2023-11-21T04:10:10;1.60;;;0.80;;
67272;SDS011;54190;49.770;9.250;2023-11-21T04:12:38;1.60;;;1.00;;
67272;SDS011;54190;49.770;9.250;2023-11-21T04:15:04;1.90;;;1.00;;
67272;SDS011;54190;49.770;9.250;2023-11-21T04:17:30;4.13;;;1.20;;
67272;SDS011;54190;49.770;9.250;2023-11-21T04:19:56;1.90;;;1.00;;
67272;SDS011;54190;49.770;9.250;2023-11-21T04:22:21;1.80;;;1.00;;
67272;SDS011;54190;49.770;9.250;2023-11-21T04:24:47;1.90;;;0.93;;
67272;SDS011;54190;49.770;9.250;2023-11-21T04:27:12;1.80;;;1.00;;
67272;SDS011;54190;49.770;9.250;2023-11-21T04:29:39;1.70;;;0.90;;
67272;SDS011;54190;49.770;9.250;2023-11-21T04:32:06;3.00;;;1.60;;
67272;SDS011;54190;49.770;9.250;2023-11-21T04:34:32;3.27;;;1.93;;
67272;SDS011;54190;49.770;9.250;2023-11-21T04:36:59;2.60;;;1.30;;
67272;SDS011;54190;49.770;9.250;2023-11-21T04:39:26;2.83;;;1.63;;
67272;SDS011;54190;49.770;9.250;2023-11-21T04:41:51;2.23;;;1.40;;
67272;SDS011;54190;49.770;9.250;2023-11-21T04:44:17;2.67;;;1.70;;
67272;SDS011;54190;49.770;9.250;2023-11-21T04:46:43;3.70;;;1.80;;
67272;SDS011;54190;49.770;9.250;2023-11-21T04:49:08;3.83;;;1.80;;
67272;SDS011;54190;49.770;9.250;2023-11-21T04:51:36;3.00;;;1.70;;
67272;SDS011;54190;49.770;9.250;2023-11-21T04:54:01;2.10;;;1.30;;
67272;SDS011;54190;49.770;9.250;2023-11-21T04:56:27;2.30;;;1.30;;
67272;SDS011;54190;49.770;9.250;2023-11-21T04:58:53;1.90;;;1.00;;
67272;SDS011;54190;49.770;9.250;2023-11-21T05:01:19;1.50;;;0.90;;
67272;SDS011;54190;49.770;9.250;2023-11-21T05:03:45;1.87;;;1.00;;
67272;SDS011;54190;49.770;9.250;2023-11-21T05:06:11;2.50;;;1.40;;
67272;SDS011;54190;49.770;9.250;2023-11-21T05:08:37;2.67;;;1.17;;
67272;SDS011;54190;49.770;9.250;2023-11-21T05:11:03;2.13;;;1.00;;
67272;SDS011;54190;49.770;9.250;2023-11-21T05:13:29;2.20;;;1.10;;
67272;SDS011;54190;49.770;9.250;2023-11-21T05:15:54;3.33;;;1.43;;
67272;SDS011;54190;49.770;9.250;2023-11-21T05:18:23;1.90;;;1.20;;
67272;SDS011;54190;49.770;9.250;2023-11-21T05:20:52;1.80;;;0.90;;
67272;SDS011;54190;49.770;9.250;2023-11-21T05:23:18;2.00;;;1.10;;
67272;SDS011;54190;49.770;9.250;2023-11-21T05:25:44;1.93;;;1.17;;
67272;SDS011;54190;49.770;9.250;2023-11-21T05:28:11;2.27;;;1.20;;
67272;SDS011;54190;49.770;9.250;2023-11-21T05:30:37;2.07;;;1.20;;
67272;SDS011;54190;49.770;9.250;2023-11-21T05:33:04;1.60;;;1.00;;
67272;SDS011;54190;49.770;9.250;2023-11-21T05:35:30;1.70;;;1.00;;
67272;SDS011;54190;49.770;9.250;2023-11-21T05:37:56;2.10;;;1.03;;
67272;SDS011;54190;49.770;9.250;2023-11-21T05:40:21;1.90;;;1.00;;
67272;SDS011;54190;49.770;9.250;2023-11-21T05:42:49;1.90;;;1.10;;
67272;SDS011;54190;49.770;9.250;2023-11-21T05:45:16;3.37;;;1.23;;
67272;SDS011;54190;49.770;9.250;2023-11-21T05:47:44;2.50;;;1.80;;
67272;SDS011;54190;49.770;9.250;2023-11-21T05:50:11;3.20;;;2.07;;
67272;SDS011;54190;49.770;9.250;2023-11-21T05:52:40;3.20;;;2.00;;
67272;SDS011;54190;49.770;9.250;2023-11-21T05:55:06;2.73;;;1.63;;
67272;SDS011;54190;49.770;9.250;2023-11-21T05:57:42;4.67;;;2.63;;
67272;SDS011;54190;49.770;9.250;2023-11-21T06:00:09;4.10;;;2.40;;
67272;SDS011;54190;49.770;9.250;2023-11-21T06:02:53;5.60;;;2.30;;
67272;SDS011;54190;49.770;9.250;2023-11-21T06:05:21;3.10;;;1.70;;
67272;SDS011;54190;49.770;9.250;2023-11-21T06:07:51;6.50;;;3.27;;
67272;SDS011;54190;49.770;9.250;2023-11-21T06:10:21;5.30;;;3.40;;
67272;SDS011;54190;49.770;9.250;2023-11-21T06:12:49;4.07;;;2.40;;
67272;SDS011;54190;49.770;9.250;2023-11-21T06:15:15;3.40;;;2.00;;
67272;SDS011;54190;49.770;9.250;2023-11-21T06:17:41;3.33;;;2.10;;
67272;SDS011;54190;49.770;9.250;2023-11-21T06:20:11;3.27;;;1.70;;
67272;SDS011;54190;49.770;9.250;2023-11-21T06:22:39;3.00;;;1.60;;
67272;SDS011;54190;49.770;9.250;2023-11-21T06:25:07;2.93;;;1.63;;
67272;SDS011;54190;49.770;9.250;2023-11-21T06:27:34;2.17;;;1.30;;
67272;SDS011;54190;49.770;9.250;2023-11-21T06:30:03;3.00;;;1.60;;
67272;SDS011;54190;49.770;9.250;2023-11-21T06:32:30;5.70;;;1.90;;
67272;SDS011;54190;49.770;9.250;2023-11-21T06:34:56;2.97;;;2.13;;
67272;SDS011;54190;49.770;9.250;2023-11-21T06:37:24;4.13;;;2.83;;
67272;SDS011;54190;49.770;9.250;2023-11-21T06:39:51;3.57;;;2.10;;
67272;SDS011;54190;49.770;9.250;2023-11-21T06:42:18;2.83;;;1.90;;
67272;SDS011;54190;49.770;9.250;2023-11-21T06:44:46;3.70;;;1.97;;
67272;SDS011;54190;49.770;9.250;2023-11-21T06:47:13;2.67;;;1.80;;
67272;SDS011;54190;49.770;9.250;2023-11-21T06:49:39;2.93;;;2.00;;
67272;SDS011;54190;49.770;9.250;2023-11-21T06:52:06;4.97;;;2.20;;
67272;SDS011;54190;49.770;9.250;2023-11-21T06:54:31;4.30;;;1.83;;
67272;SDS011;54190;49.770;9.250;2023-11-21T06:56:58;2.30;;;1.50;;
67272;SDS011;54190;49.770;9.250;2023-11-21T06:59:23;3.03;;;1.90;;
67272;SDS011;54190;49.770;9.250;2023-11-21T07:01:49;3.73;;;2.23;;
67272;SDS011;54190;49.770;9.250;2023-11-21T07:04:15;3.27;;;2.03;;
67272;SDS011;54190;49.770;9.250;2023-11-21T07:06:41;3.30;;;2.30;;
67272;SDS011;54190;49.770;9.250;2023-11-21T07:09:07;3.13;;;2.33;;
67272;SDS011;54190;49.770;9.250;2023-11-21T07:11:33;3.07;;;2.23;;
67272;SDS011;54190;49.770;9.250;2023-11-21T07:13:59;3.87;;;2.40;;
67272;SDS011;54190;49.770;9.250;2023-11-21T07:16:31;5.87;;;2.40;;
67272;SDS011;54190;49.770;9.250;2023-11-21T07:18:59;7.07;;;3.03;;
67272;SDS011;54190;49.770;9.250;2023-11-21T07:21:25;4.13;;;2.73;;
67272;SDS011;54190;49.770;9.250;2023-11-21T07:23:51;4.10;;;2.57;;
67272;SDS011;54190;49.770;9.250;2023-11-21T07:26:17;3.67;;;2.50;;
67272;SDS011;54190;49.770;9.250;2023-11-21T07:28:42;5.90;;;2.90;;
67272;SDS011;54190;49.770;9.250;2023-11-21T07:31:08;3.70;;;1.93;;
67272;SDS011;54190;49.770;9.250;2023-11-21T07:33:33;3.00;;;1.60;;
67272;SDS011;54190;49.770;9.250;2023-11-21T07:35:59;4.47;;;2.30;;
67272;SDS011;54190;49.770;9.250;2023-11-21T07:38:24;3.97;;;2.20;;
67272;SDS011;54190;49.770;9.250;2023-11-21T07:40:53;5.20;;;2.40;;
67272;SDS011;54190;49.770;9.250;2023-11-21T07:43:19;13.60;;;5.13;;
67272;SDS011;54190;49.770;9.250;2023-11-21T07:45:44;13.73;;;4.57;;
67272;SDS011;54190;49.770;9.250;2023-11-21T07:48:10;17.10;;;5.30;;
67272;SDS011;54190;49.770;9.250;2023-11-21T07:50:36;14.57;;;5.63;;
67272;SDS011;54190;49.770;9.250;2023-11-21T07:53:01;13.17;;;5.07;;
67272;SDS011;54190;49.770;9.250;2023-11-21T07:55:30;5.13;;;3.30;;
67272;SDS011;54190;49.770;9.250;2023-11-21T07:57:57;2.90;;;2.10;;
67272;SDS011;54190;49.770;9.250;2023-11-21T08:00:22;2.50;;;1.40;;
67272;SDS011;54190;49.770;9.250;2023-11-21T08:02:49;2.53;;;1.60;;
67272;SDS011;54190;49.770;9.250;2023-11-21T08:05:15;2.73;;;1.63;;
67272;SDS011;54190;49.770;9.250;2023-11-21T08:07:41;2.33;;;1.50;;
67272;SDS011;54190;49.770;9.250;2023-11-21T08:10:07;2.20;;;1.50;;
67272;SDS011;54190;49.770;9.250;2023-11-21T08:12:35;2.43;;;1.40;;
67272;SDS011;54190;49.770;9.250;2023-11-21T08:15:01;2.13;;;1.40;;
67272;SDS011;54190;49.770;9.250;2023-11-21T08:17:28;2.20;;;1.50;;
67272;SDS011;54190;49.770;9.250;2023-11-21T08:19:54;2.63;;;1.53;;
67272;SDS011;54190;49.770;9.250;2023-11-21T08:22:20;2.37;;;1.40;;
67272;SDS011;54190;49.770;9.250;2023-11-21T08:24:46;3.07;;;1.57;;
67272;SDS011;54190;49.770;9.250;2023-11-21T08:27:12;2.40;;;1.50;;
67272;SDS011;54190;49.770;9.250;2023-11-21T08:29:40;2.33;;;1.43;;
67272;SDS011;54190;49.770;9.250;2023-11-21T08:32:07;3.20;;;1.70;;
67272;SDS011;54190;49.770;9.250;2023-11-21T08:34:32;2.37;;;1.60;;
67272;SDS011;54190;49.770;9.250;2023-11-21T08:36:58;2.97;;;1.70;;
67272;SDS011;54190;49.770;9.250;2023-11-21T08:39:24;2.90;;;1.80;;
67272;SDS011;54190;49.770;9.250;2023-11-21T08:41:50;2.40;;;1.60;;
67272;SDS011;54190;49.770;9.250;2023-11-21T08:44:16;2.70;;;1.63;;
67272;SDS011;54190;49.770;9.250;2023-11-21T08:46:46;3.20;;;1.97;;
67272;SDS011;54190;49.770;9.250;2023-11-21T08:49:12;3.20;;;1.97;;
67272;SDS011;54190;49.770;9.250;2023-11-21T08:51:37;4.10;;;2.30;;
67272;SDS011;54190;49.770;9.250;2023-11-21T08:54:04;3.30;;;2.27;;
67272;SDS011;54190;49.770;9.250;2023-11-21T08:56:33;5.83;;;2.30;;
67272;SDS011;54190;49.770;9.250;2023-11-21T08:58:59;4.03;;;2.50;;
67272;SDS011;54190;49.770;9.250;2023-11-21T09:01:28;5.03;;;2.87;;
67272;SDS011;54190;49.770;9.250;2023-11-21T09:03:57;5.30;;;2.50;;
67272;SDS011;54190;49.770;9.250;2023-11-21T09:06:23;3.10;;;2.20;;
67272;SDS011;54190;49.770;9.250;2023-11-21T09:08:49;3.60;;;2.20;;
67272;SDS011;54190;49.770;9.250;2023-11-21T09:11:15;3.30;;;2.20;;
67272;SDS011;54190;49.770;9.250;2023-11-21T09:13:40;5.00;;;2.33;;
67272;SDS011;54190;49.770;9.250;2023-11-21T09:16:06;5.00;;;2.50;;
67272;SDS011;54190;49.770;9.250;2023-11-21T09:18:32;6.03;;;3.40;;
67272;SDS011;54190;49.770;9.250;2023-11-21T09:20:57;5.83;;;2.90;;
67272;SDS011;54190;49.770;9.250;2023-11-21T09:23:23;4.10;;;2.43;;
67272;SDS011;54190;49.770;9.250;2023-11-21T09:25:49;3.60;;;2.30;;
67272;SDS011;54190;49.770;9.250;2023-11-21T09:28:17;3.00;;;2.10;;
67272;SDS011;54190;49.770;9.250;2023-11-21T09:30:43;2.90;;;1.90;;
67272;SDS011;54190;49.770;9.250;2023-11-21T09:33:08;3.50;;;2.30;;
67272;SDS011;54190;49.770;9.250;2023-11-21T09:35:38;2.83;;;1.90;;
67272;SDS011;54190;49.770;9.250;2023-11-21T09:38:04;6.10;;;2.13;;
67272;SDS011;54190;49.770;9.250;2023-11-21T09:40:35;3.07;;;1.60;;
67272;SDS011;54190;49.770;9.250;2023-11-21T09:43:06;3.10;;;2.00;;
67272;SDS011;54190;49.770;9.250;2023-11-21T09:45:41;3.50;;;1.90;;
67272;SDS011;54190;49.770;9.250;2023-11-21T09:48:15;3.87;;;1.97;;
67272;SDS011;54190;49.770;9.250;2023-11-21T09:50:42;4.13;;;2.03;;
67272;SDS011;54190;49.770;9.250;2023-11-21T09:53:21;3.20;;;1.97;;
67272;SDS011;54190;49.770;9.250;2023-11-21T09:55:50;3.50;;;1.93;;
67272;SDS011;54190;49.770;9.250;2023-11-21T09:58:17;2.90;;;1.90;;
67272;SDS011;54190;49.770;9.250;2023-11-21T10:00:45;4.53;;;2.47;;
67272;SDS011;54190;49.770;9.250;2023-11-21T10:03:12;3.80;;;2.50;;
67272;SDS011;54190;49.770;9.250;2023-11-21T10:05:39;4.03;;;2.30;;
67272;SDS011;54190;49.770;9.250;2023-11-21T10:08:07;4.63;;;2.20;;
67272;SDS011;54190;49.770;9.250;2023-11-21T10:10:35;3.77;;;2.30;;
67272;SDS011;54190;49.770;9.250;2023-11-21T10:13:03;4.30;;;2.53;;
67272;SDS011;54190;49.770;9.250;2023-11-21T10:15:33;4.43;;;2.80;;
67272;SDS011;54190;49.770;9.250;2023-11-21T10:18:03;5.10;;;2.87;;
67272;SDS011;54190;49.770;9.250;2023-11-21T10:20:30;4.20;;;2.80;;
67272;SDS011;54190;49.770;9.250;2023-11-21T10:22:57;4.73;;;2.53;;
67272;SDS011;54190;49.770;9.250;2023-11-21T10:25:22;4.07;;;2.90;;
67272;SDS011;54190;49.770;9.250;2023-11-21T10:27:48;4.93;;;3.00;;
67272;SDS011;54190;49.770;9.250;2023-11-21T10:30:17;5.03;;;3.50;;
67272;SDS011;54190;49.770;9.250;2023-11-21T10:32:43;4.43;;;2.50;;
67272;SDS011;54190;49.770;9.250;2023-11-21T10:35:09;4.60;;;2.87;;
67272;SDS011;54190;49.770;9.250;2023-11-21T10:37:36;6.97;;;3.33;;
67272;SDS011;54190;49.770;9.250;2023-11-21T10:40:06;4.33;;;2.53;;
67272;SDS011;54190;49.770;9.250;2023-11-21T10:42:34;3.60;;;2.20;;
67272;SDS011;54190;49.770;9.250;2023-11-21T10:44:59;5.17;;;3.30;;
67272;SDS011;54190;49.770;9.250;2023-11-21T10:47:26;6.80;;;4.03;;
67272;SDS011;54190;49.770;9.250;2023-11-21T10:49:52;12.50;;;6.93;;
67272;SDS011;54190;49.770;9.250;2023-11-21T10:52:20;6.93;;;3.73;;
67272;SDS011;54190;49.770;9.250;2023-11-21T10:54:46;3.73;;;2.20;;
67272;SDS011;54190;49.770;9.250;2023-11-21T10:57:13;3.27;;;2.40;;
67272;SDS011;54190;49.770;9.250;2023-11-21T10:59:43;4.37;;;2.50;;
67272;SDS011;54190;49.770;9.250;2023-11-21T11:02:21;4.33;;;2.60;;
67272;SDS011;54190;49.770;9.250;2023-11-21T11:04:50;5.27;;;3.40;;
67272;SDS011;54190;49.770;9.250;2023-11-21T11:07:17;5.70;;;3.30;;
67272;SDS011;54190;49.770;9.250;2023-11-21T11:09:46;4.43;;;3.13;;
67272;SDS011;54190;49.770;9.250;2023-11-21T11:12:12;8.07;;;3.70;;
67272;SDS011;54190;49.770;9.250;2023-11-21T11:14:40;4.53;;;2.63;;
67272;SDS011;54190;49.770;9.250;2023-11-21T11:17:06;4.70;;;2.63;;
67272;SDS011;54190;49.770;9.250;2023-11-21T11:19:33;4.00;;;2.00;;
67272;SDS011;54190;49.770;9.250;2023-11-21T11:22:16;4.67;;;1.90;;
67272;SDS011;54190;49.770;9.250;2023-11-21T11:25:10;3.80;;;2.03;;
67272;SDS011;54190;49.770;9.250;2023-11-21T11:28:14;4.57;;;2.60;;
67272;SDS011;54190;49.770;9.250;2023-11-21T11:33:34;3.60;;;2.47;;
67272;SDS011;54190;49.770;9.250;2023-11-21T11:39:26;2.83;;;1.50;;
67272;SDS011;54190;49.770;9.250;2023-11-21T11:41:55;2.73;;;1.83;;
67272;SDS011;54190;49.770;9.250;2023-11-21T11:47:14;4.67;;;1.70;;
67272;SDS011;54190;49.770;9.250;2023-11-21T11:52:32;3.53;;;2.20;;
67272;SDS011;54190;49.770;9.250;2023-11-21T11:55:05;3.10;;;1.73;;
67272;SDS011;54190;49.770;9.250;2023-11-21T11:57:35;3.43;;;1.77;;
67272;SDS011;54190;49.770;9.250;2023-11-21T12:00:11;3.47;;;1.90;;
67272;SDS011;54190;49.770;9.250;2023-11-21T12:02:57;3.37;;;2.17;;
67272;SDS011;54190;49.770;9.250;2023-11-21T12:05:25;4.20;;;2.53;;
67272;SDS011;54190;49.770;9.250;2023-11-21T12:07:58;3.80;;;2.30;;
67272;SDS011;54190;49.770;9.250;2023-11-21T12:10:32;2.90;;;1.80;;
67272;SDS011;54190;49.770;9.250;2023-11-21T12:13:06;3.90;;;1.80;;
67272;SDS011;54190;49.770;9.250;2023-11-21T12:15:33;2.73;;;1.70;;
67272;SDS011;54190;49.770;9.250;2023-11-21T12:18:00;3.40;;;1.93;;
67272;SDS011;54190;49.770;9.250;2023-11-21T12:20:26;2.23;;;1.50;;
67272;SDS011;54190;49.770;9.250;2023-11-21T12:22:53;3.40;;;1.80;;
67272;SDS011;54190;49.770;9.250;2023-11-21T12:25:23;3.63;;;1.93;;
67272;SDS011;54190;49.770;9.250;2023-11-21T12:27:57;2.53;;;1.20;;
67272;SDS011;54190;49.770;9.250;2023-11-21T12:30:26;4.50;;;1.47;;
67272;SDS011;54190;49.770;9.250;2023-11-21T12:33:01;6.90;;;2.20;;
67272;SDS011;54190;49.770;9.250;2023-11-21T12:35:27;3.63;;;2.33;;
67272;SDS011;54190;49.770;9.250;2023-11-21T12:37:59;4.80;;;2.73;;
67272;SDS011;54190;49.770;9.250;2023-11-21T12:40:25;4.10;;;2.67;;
67272;SDS011;54190;49.770;9.250;2023-11-21T12:42:52;3.63;;;2.50;;
67272;SDS011;54190;49.770;9.250;2023-11-21T12:45:26;8.70;;;3.00;;
67272;SDS011;54190;49.770;9.250;2023-11-21T12:47:56;7.73;;;4.23;;
67272;SDS011;54190;49.770;9.250;2023-11-21T12:50:33;7.80;;;4.30;;
67272;SDS011;54190;49.770;9.250;2023-11-21T12:53:02;4.73;;;3.10;;
67272;SDS011;54190;49.770;9.250;2023-11-21T12:55:33;5.00;;;3.17;;
67272;SDS011;54190;49.770;9.250;2023-11-21T12:58:03;5.17;;;2.70;;
67272;SDS011;54190;49.770;9.250;2023-11-21T13:00:52;4.83;;;2.50;;
67272;SDS011;54190;49.770;9.250;2023-11-21T13:03:19;3.70;;;2.10;;
67272;SDS011;54190;49.770;9.250;2023-11-21T13:05:50;4.53;;;3.00;;
67272;SDS011;54190;49.770;9.250;2023-11-21T13:08:19;5.93;;;2.73;;
67272;SDS011;54190;49.770;9.250;2023-11-21T13:10:51;5.27;;;2.50;;
67272;SDS011;54190;49.770;9.250;2023-11-21T13:13:19;6.43;;;3.23;;
67272;SDS011;54190;49.770;9.250;2023-11-21T13:15:55;6.67;;;3.37;;
67272;SDS011;54190;49.770;9.250;2023-11-21T13:18:21;10.47;;;4.10;;
67272;SDS011;54190;49.770;9.250;2023-11-21T13:20:56;7.13;;;3.60;;
67272;SDS011;54190;49.770;9.250;2023-11-21T13:23:23;6.87;;;3.80;;
67272;SDS011;54190;49.770;9.250;2023-11-21T13:25:50;5.33;;;3.07;;
67272;SDS011;54190;49.770;9.250;2023-11-21T13:28:16;5.53;;;2.80;;
67272;SDS011;54190;49.770;9.250;2023-11-21T13:30:43;3.60;;;2.30;;
67272;SDS011;54190;49.770;9.250;2023-11-21T13:33:10;4.80;;;2.63;;
67272;SDS011;54190;49.770;9.250;2023-11-21T13:35:42;5.40;;;3.00;;
67272;SDS011;54190;49.770;9.250;2023-11-21T13:38:13;3.80;;;2.23;;
67272;SDS011;54190;49.770;9.250;2023-11-21T13:40:48;5.90;;;2.70;;
67272;SDS011;54190;49.770;9.250;2023-11-21T13:43:15;3.80;;;2.10;;
67272;SDS011;54190;49.770;9.250;2023-11-21T13:45:44;4.70;;;2.70;;
67272;SDS011;54190;49.770;9.250;2023-11-21T13:48:11;6.93;;;3.07;;
67272;SDS011;54190;49.770;9.250;2023-11-21T13:50:44;3.80;;;2.50;;
67272;SDS011;54190;49.770;9.250;2023-11-21T13:53:32;3.83;;;2.70;;
67272;SDS011;54190;49.770;9.250;2023-11-21T13:55:58;3.97;;;2.50;;
67272;SDS011;54190;49.770;9.250;2023-11-21T13:58:24;5.80;;;2.53;;
67272;SDS011;54190;49.770;9.250;2023-11-21T14:01:04;5.37;;;2.90;;
67272;SDS011;54190;49.770;9.250;2023-11-21T14:03:31;5.50;;;2.93;;
67272;SDS011;54190;49.770;9.250;2023-11-21T14:06:17;6.33;;;3.10;;
67272;SDS011;54190;49.770;9.250;2023-11-21T14:08:49;5.00;;;3.10;;
67272;SDS011;54190;49.770;9.250;2023-11-21T14:11:15;4.50;;;2.70;;
67272;SDS011;54190;49.770;9.250;2023-11-21T14:13:43;8.13;;;4.50;;
67272;SDS011;54190;49.770;9.250;2023-11-21T14:16:13;10.70;;;4.17;;
67272;SDS011;54190;49.770;9.250;2023-11-21T14:18:39;7.13;;;3.73;;
67272;SDS011;54190;49.770;9.250;2023-11-21T14:21:17;4.07;;;2.73;;
67272;SDS011;54190;49.770;9.250;2023-11-21T14:23:46;4.37;;;2.80;;
67272;SDS011;54190;49.770;9.250;2023-11-21T14:26:13;5.67;;;3.17;;
67272;SDS011;54190;49.770;9.250;2023-11-21T14:28:40;4.50;;;2.67;;
67272;SDS011;54190;49.770;9.250;2023-11-21T14:31:07;4.83;;;2.47;;
67272;SDS011;54190;49.770;9.250;2023-11-21T14:33:33;4.97;;;2.60;;
67272;SDS011;54190;49.770;9.250;2023-11-21T14:35:59;10.90;;;4.03;;
67272;SDS011;54190;49.770;9.250;2023-11-21T14:38:24;6.97;;;3.63;;
67272;SDS011;54190;49.770;9.250;2023-11-21T14:40:50;6.50;;;3.83;;
67272;SDS011;54190;49.770;9.250;2023-11-21T14:43:15;6.17;;;3.90;;
67272;SDS011;54190;49.770;9.250;2023-11-21T14:45:44;8.23;;;3.67;;
67272;SDS011;54190;49.770;9.250;2023-11-21T14:48:09;5.60;;;3.27;;
67272;SDS011;54190;49.770;9.250;2023-11-21T14:50:41;6.07;;;3.90;;
67272;SDS011;54190;49.770;9.250;2023-11-21T14:53:11;7.53;;;4.43;;
67272;SDS011;54190;49.770;9.250;2023-11-21T14:55:38;6.60;;;4.33;;
67272;SDS011;54190;49.770;9.250;2023-11-21T14:58:17;15.17;;;6.13;;
67272;SDS011;54190;49.770;9.250;2023-11-21T15:00:55;12.20;;;6.40;;
67272;SDS011;54190;49.770;9.250;2023-11-21T15:03:25;12.40;;;5.20;;